CYWG

Winnipeg / James Armstrong Richardson International Airport

Code ICAO CYWG
Code IATA YWG
Nom Winnipeg / James Armstrong Richardson International Airport
Emplacement Winnipeg, Manitoba, CA
Élévation 783 pieds / 238.7 mètres
Latitude 49.90999985
Longitude -97.23989868
METAR CYWG 240619Z 32005KT 15SM SKC M27/M30 A2986 RMK SLP141
Informations extras Afficher cartes et CFS
Afficher NOTAMS
Piste Longueur Largeur Surface Élévation
07 4500 ft 200 ft ASP ft
13 8700 ft 200 ft ASP 783 ft
18 11000 ft 200 ft ASP 781 ft
25 4500 ft 200 ft ASP 775 ft
31 8700 ft 200 ft ASP 773 ft
36 11000 ft 200 ft ASP 777 ft